Time;durP1;ratioP1;P1;durP2;ratioP2;P2;SDS_P1;SDS_P2;PMS_P1;PMS_P2;Temp;Humidity;BMP_temperature;BMP_pressure;BME280_temperature;BME280_humidity;BME280_pressure;Samples;Min_cycle;Max_cycle;Signal;HPM_P1;HPM_P2
2022/01/11 00:00:54;;;;;;;0.47;0.47;;;;;;;5.05;100.00;98378.25;5089753;28;20028;-78
2022/01/11 00:03:19;;;;;;;0.10;0.10;;;;;;;5.07;100.00;98393.94;5089465;28;20548;-75
2022/01/11 00:08:18;;;;;;;0.32;0.32;;;;;;;5.05;100.00;98388.88;5101725;28;20048;-73
2022/01/11 00:10:54;;;;;;;0.32;0.32;;;;;;;4.95;100.00;98400.19;5097269;28;20019;-73
2022/01/11 00:13:20;;;;;;;0.38;0.38;;;;;;;4.88;100.00;98394.34;5110151;28;20047;-73
2022/01/11 00:15:47;;;;;;;0.15;0.15;;;;;;;4.85;100.00;98397.50;5115389;28;20110;-74
2022/01/11 00:18:13;;;;;;;0.10;0.10;;;;;;;4.76;100.00;98385.75;5112475;28;20469;-75
2022/01/11 00:20:39;;;;;;;0.00;0.00;;;;;;;4.75;100.00;98394.78;5103506;28;20024;-74
2022/01/11 00:25:36;;;;;;;0.30;0.30;;;;;;;4.64;100.00;98418.53;5094849;28;20020;-75
2022/01/11 00:28:03;;;;;;;2.20;1.08;;;;;;;4.65;100.00;98408.72;5105836;28;20023;-76
2022/01/11 00:30:32;;;;;;;0.32;0.32;;;;;;;4.60;100.00;98398.91;5114541;28;20407;-75
2022/01/11 00:33:00;;;;;;;0.00;0.00;;;;;;;4.59;100.00;98431.72;5115130;28;20024;-75
2022/01/11 00:35:38;;;;;;;0.00;0.00;;;;;;;4.57;100.00;98391.44;5113782;28;20169;-75
2022/01/11 00:38:05;;;;;;;0.10;0.10;;;;;;;4.55;100.00;98408.66;5103697;28;20438;-74
2022/01/11 00:40:30;;;;;;;0.00;0.00;;;;;;;4.43;100.00;98422.03;5099133;28;20471;-75
2022/01/11 00:42:59;;;;;;;0.13;0.13;;;;;;;4.49;100.00;98423.69;5093247;28;20034;-73
2022/01/11 00:45:25;;;;;;;;;;;;;;;4.46;100.00;98437.44;5093523;28;20189;-71
2022/01/11 00:47:50;;;;;;;0.00;0.00;;;;;;;4.40;100.00;98452.47;5092866;28;20410;-71
2022/01/11 00:50:17;;;;;;;0.00;0.00;;;;;;;4.39;100.00;98420.94;5092893;28;20028;-71
2022/01/11 00:52:43;;;;;;;0.45;0.45;;;;;;;4.33;100.00;98401.56;5092765;28;20068;-73
2022/01/11 00:55:08;;;;;;;0.03;0.03;;;;;;;4.36;100.00;98422.25;5094025;28;20116;-74
2022/01/11 00:57:34;;;;;;;0.00;0.00;;;;;;;4.28;100.00;98414.75;5108534;28;20410;-72
2022/01/11 00:59:59;;;;;;;0.00;0.00;;;;;;;4.12;100.00;98440.25;5114628;28;20034;-73
2022/01/11 01:02:25;;;;;;;0.00;0.00;;;;;;;4.06;100.00;98399.72;5113293;28;20028;-72
2022/01/11 01:04:50;;;;;;;0.00;0.00;;;;;;;4.23;100.00;98454.41;5113151;28;20063;-72
2022/01/11 01:07:16;;;;;;;0.00;0.00;;;;;;;4.23;100.00;98441.97;5111785;28;20027;-71
2022/01/11 01:09:58;;;;;;;0.00;0.00;;;;;;;4.23;100.00;98441.19;5109781;28;20036;-70
2022/01/11 01:12:23;;;;;;;0.00;0.00;;;;;;;4.21;100.00;98430.84;5093729;28;20024;-72
2022/01/11 01:14:49;;;;;;;0.20;0.20;;;;;;;4.11;100.00;98430.72;5094671;28;20071;-71
2022/01/11 01:17:14;;;;;;;0.10;0.10;;;;;;;4.20;100.00;98433.72;5092353;28;20040;-71
2022/01/11 01:19:40;;;;;;;0.75;0.75;;;;;;;4.12;100.00;98437.63;5094107;28;20031;-72
2022/01/11 01:22:05;;;;;;;10.27;1.85;;;;;;;4.16;100.00;98475.75;5093288;28;20076;-72
2022/01/11 01:24:31;;;;;;;0.10;0.10;;;;;;;4.18;100.00;98451.72;5093192;28;20035;-72
2022/01/11 01:26:56;;;;;;;0.00;0.00;;;;;;;4.05;100.00;98444.94;5092364;28;20024;-72
2022/01/11 01:29:21;;;;;;;0.25;0.25;;;;;;;4.03;100.00;98437.25;5094446;28;20096;-71
2022/01/11 01:31:47;;;;;;;0.00;0.00;;;;;;;4.11;100.00;98487.13;5092224;28;20024;-71
2022/01/11 01:34:12;;;;;;;0.75;0.75;;;;;;;4.04;100.00;98449.44;5092080;28;20031;-71
2022/01/11 01:36:38;;;;;;;0.00;0.00;;;;;;;3.88;100.00;98461.69;5093486;28;20093;-71
2022/01/11 01:39:05;;;;;;;1.60;1.50;;;;;;;3.95;100.00;98466.78;5093528;28;20134;-71
2022/01/11 01:41:30;;;;;;;0.00;0.00;;;;;;;3.87;100.00;98454.00;5109184;28;20081;-72
2022/01/11 01:43:59;;;;;;;0.00;0.00;;;;;;;3.88;100.00;98445.81;5113420;28;20450;-78
2022/01/11 01:46:25;;;;;;;0.10;0.10;;;;;;;3.94;100.00;98492.47;5112152;28;20028;-72
2022/01/11 01:48:54;;;;;;;0.00;0.00;;;;;;;3.95;100.00;98456.22;5112366;28;20023;-71
2022/01/11 01:51:19;;;;;;;0.00;0.00;;;;;;;3.93;100.00;98477.63;5113156;28;20030;-71
2022/01/11 01:53:47;;;;;;;0.52;0.52;;;;;;;3.83;100.00;98458.97;5104240;28;20024;-71
2022/01/11 01:56:15;;;;;;;0.85;0.85;;;;;;;3.81;100.00;98453.94;5113339;28;20027;-72
2022/01/11 01:58:42;;;;;;;0.00;0.00;;;;;;;3.79;100.00;98463.16;5094841;28;20028;-72
2022/01/11 02:01:08;;;;;;;0.08;0.08;;;;;;;3.82;100.00;98457.38;5092863;28;20076;-70
2022/01/11 02:03:39;;;;;;;0.03;0.03;;;;;;;3.75;100.00;98475.25;5093096;28;20081;-70
2022/01/11 02:06:11;;;;;;;0.00;0.00;;;;;;;3.73;100.00;98486.09;5093763;28;20390;-70
2022/01/11 02:08:38;;;;;;;1.20;1.10;;;;;;;3.63;100.00;98457.69;5091592;28;20030;-70
2022/01/11 02:11:05;;;;;;;0.10;0.10;;;;;;;3.73;100.00;98472.88;5105193;28;20030;-70
2022/01/11 02:13:31;;;;;;;0.28;0.28;;;;;;;3.69;100.00;98479.72;5112158;28;20023;-70
2022/01/11 02:15:57;;;;;;;0.00;0.00;;;;;;;3.69;100.00;98492.94;5092790;28;20031;-70
2022/01/11 02:18:25;;;;;;;0.65;0.65;;;;;;;3.59;100.00;98496.25;5092462;28;20089;-70
2022/01/11 02:20:52;;;;;;;0.17;0.17;;;;;;;3.62;100.00;98487.00;5092680;28;20455;-70
2022/01/11 02:23:19;;;;;;;0.00;0.00;;;;;;;3.50;100.00;98497.69;5112809;28;20035;-70
2022/01/11 02:25:45;;;;;;;0.00;0.00;;;;;;;3.52;100.00;98492.97;5113017;28;20023;-71
2022/01/11 02:28:14;;;;;;;0.13;0.13;;;;;;;3.51;100.00;98508.00;5110046;28;20122;-70
2022/01/11 02:30:40;;;;;;;0.00;0.00;;;;;;;3.53;100.00;98497.22;5092581;28;20089;-70
2022/01/11 02:33:14;;;;;;;0.45;0.45;;;;;;;3.43;100.00;98486.47;5092147;28;20028;-69
2022/01/11 02:35:40;;;;;;;0.00;0.00;;;;;;;3.46;100.00;98504.50;5091833;28;20024;-71
2022/01/11 02:38:05;;;;;;;0.45;0.45;;;;;;;3.47;100.00;98496.34;5092085;28;20039;-70
2022/01/11 02:40:30;;;;;;;0.00;0.00;;;;;;;3.40;100.00;98477.19;5092385;28;20031;-70
2022/01/11 02:42:56;;;;;;;0.00;0.00;;;;;;;3.41;100.00;98492.00;5091908;28;20031;-70
2022/01/11 02:45:22;;;;;;;1.25;0.80;;;;;;;3.40;100.00;98489.63;5090597;28;20032;-71
2022/01/11 02:47:49;;;;;;;0.00;0.00;;;;;;;3.39;100.00;98501.22;5092160;28;20066;-70
2022/01/11 02:50:17;;;;;;;0.00;0.00;;;;;;;3.34;100.00;98502.78;5096064;28;20032;-70
2022/01/11 02:52:42;;;;;;;0.43;0.43;;;;;;;3.34;100.00;98491.38;5110915;28;20051;-70
2022/01/11 02:55:11;;;;;;;0.00;0.00;;;;;;;3.37;100.00;98496.19;5111892;28;20050;-70
2022/01/11 02:57:37;;;;;;;0.10;0.10;;;;;;;3.29;100.00;98486.81;5100507;28;20049;-71
2022/01/11 03:00:09;;;;;;;0.00;0.00;;;;;;;3.37;100.00;98501.47;5090650;28;20081;-70
2022/01/11 03:02:34;;;;;;;1.30;0.85;;;;;;;3.43;100.00;98499.69;5091515;28;20513;-71
2022/01/11 03:05:00;;;;;;;0.00;0.00;;;;;;;3.41;100.00;98485.94;5091689;28;20103;-71
2022/01/11 03:07:25;;;;;;;0.00;0.00;;;;;;;3.36;100.00;98476.88;5103508;28;20039;-71
2022/01/11 03:12:22;;;;;;;0.05;0.05;;;;;;;3.38;100.00;98497.78;5103336;28;20419;-71
2022/01/11 03:14:48;;;;;;;0.00;0.00;;;;;;;3.38;100.00;98518.91;5091666;28;20519;-71
2022/01/11 03:17:13;;;;;;;0.43;0.43;;;;;;;3.13;100.00;98466.50;5091460;28;20115;-71
2022/01/11 03:19:39;;;;;;;0.73;0.73;;;;;;;3.30;100.00;98522.78;5091379;28;20035;-70
2022/01/11 03:22:04;;;;;;;0.30;0.30;;;;;;;3.27;100.00;98507.41;5090273;28;20039;-71
2022/01/11 03:24:29;;;;;;;0.65;0.65;;;;;;;3.33;100.00;98522.31;5090970;28;20032;-71
2022/01/11 03:26:55;;;;;;;0.05;0.05;;;;;;;3.25;100.00;98516.59;5090645;28;20031;-70
2022/01/11 03:29:20;;;;;;;0.10;0.10;;;;;;;3.30;100.00;98529.91;5091548;28;20028;-70
2022/01/11 03:31:46;;;;;;;0.00;0.00;;;;;;;3.19;100.00;98510.47;5090012;28;20086;-69
2022/01/11 03:34:17;;;;;;;0.10;0.10;;;;;;;3.27;100.00;98555.00;5091161;28;20597;-69
2022/01/11 03:36:43;;;;;;;0.00;0.00;;;;;;;3.22;100.00;98525.03;5091386;28;20020;-69
2022/01/11 03:39:09;;;;;;;0.52;0.52;;;;;;;3.18;100.00;98520.22;5091435;28;20407;-70
2022/01/11 03:41:34;;;;;;;0.08;0.08;;;;;;;3.15;100.00;98536.56;5090836;28;20031;-70
2022/01/11 03:43:59;;;;;;;0.05;0.05;;;;;;;3.17;100.00;98554.81;5089684;28;20546;-69
2022/01/11 03:46:25;;;;;;;0.10;0.10;;;;;;;3.15;99.08;98585.94;5101330;28;20028;-69
2022/01/11 03:48:50;;;;;;;0.28;0.28;;;;;;;3.01;99.91;98546.63;5111101;28;20024;-69
2022/01/11 03:51:16;;;;;;;0.10;0.10;;;;;;;3.11;99.94;98564.47;5111008;28;20386;-70
2022/01/11 03:53:53;;;;;;;0.68;0.17;;;;;;;3.05;99.74;98581.28;5109397;28;20032;-69
2022/01/11 03:56:21;;;;;;;0.20;0.20;;;;;;;2.91;99.39;98562.31;5111325;28;20027;-70
2022/01/11 03:58:51;;;;;;;0.10;0.10;;;;;;;2.97;100.00;98576.41;5101910;28;20097;-70
2022/01/11 04:01:17;;;;;;;0.00;0.00;;;;;;;2.95;99.69;98568.69;5111114;28;20034;-71
2022/01/11 04:03:43;;;;;;;0.85;0.85;;;;;;;2.82;99.51;98553.16;5110956;28;20020;-70
2022/01/11 04:06:08;;;;;;;0.00;0.00;;;;;;;2.95;99.95;98555.50;5093689;28;20402;-71
2022/01/11 04:08:34;;;;;;;0.30;0.30;;;;;;;2.91;99.91;98575.50;5109746;28;20479;-71
2022/01/11 04:10:59;;;;;;;0.10;0.10;;;;;;;2.82;99.63;98563.72;5104550;28;20032;-70
2022/01/11 04:13:25;;;;;;;0.10;0.10;;;;;;;2.90;99.65;98589.75;5110456;28;20059;-70
2022/01/11 04:15:50;;;;;;;0.85;0.85;;;;;;;2.79;99.58;98557.06;5111284;28;20020;-69
2022/01/11 04:18:16;;;;;;;0.00;0.00;;;;;;;2.81;98.65;98585.91;5111056;28;20034;-70
2022/01/11 04:20:41;;;;;;;0.00;0.00;;;;;;;2.75;99.40;98573.63;5106620;28;20047;-69
2022/01/11 04:23:11;;;;;;;0.00;0.00;;;;;;;2.79;99.69;98575.56;5091081;28;20039;-69
2022/01/11 04:25:36;;;;;;;2.08;1.98;;;;;;;2.80;99.08;98613.34;5090907;28;20442;-69
2022/01/11 04:28:02;;;;;;;0.35;0.35;;;;;;;2.64;98.44;98599.84;5090765;28;20095;-69
2022/01/11 04:30:28;;;;;;;0.00;0.00;;;;;;;2.64;98.66;98586.63;5090322;28;20160;-71
2022/01/11 04:32:53;;;;;;;0.00;0.00;;;;;;;2.61;98.81;98573.09;5090847;28;20491;-71
2022/01/11 04:35:18;;;;;;;0.47;0.47;;;;;;;2.60;98.25;98596.06;5090536;28;20028;-69
2022/01/11 04:37:45;;;;;;;0.63;0.63;;;;;;;2.57;98.10;98617.66;5090862;28;20052;-69
2022/01/11 04:40:11;;;;;;;0.77;0.77;;;;;;;2.54;98.32;98602.28;5090505;28;20084;-69
2022/01/11 04:42:37;;;;;;;1.00;0.95;;;;;;;2.28;98.11;98587.78;5090556;28;20024;-69
2022/01/11 04:45:03;;;;;;;0.57;0.57;;;;;;;2.45;98.97;98607.13;5106948;28;20035;-70
2022/01/11 04:47:28;;;;;;;0.35;0.35;;;;;;;2.55;98.55;98617.91;5113561;28;20042;-70
2022/01/11 04:49:53;;;;;;;0.00;0.00;;;;;;;2.46;98.45;98624.56;5090942;28;20024;-70
2022/01/11 04:52:19;;;;;;;10.43;3.30;;;;;;;2.44;98.45;98636.38;5090014;28;20055;-69
2022/01/11 04:54:44;;;;;;;0.00;0.00;;;;;;;2.48;98.32;98637.50;5090477;28;20581;-69
2022/01/11 04:57:10;;;;;;;0.20;0.20;;;;;;;2.44;98.08;98620.56;5090440;28;20085;-68
2022/01/11 04:59:35;;;;;;;0.40;0.40;;;;;;;2.43;97.98;98637.41;5101876;28;20028;-69
2022/01/11 05:02:01;;;;;;;0.00;0.00;;;;;;;2.43;97.93;98630.31;5109744;28;20039;-69
2022/01/11 05:04:26;;;;;;;2.20;1.33;;;;;;;2.44;98.27;98647.75;5114325;28;20459;-69
2022/01/11 05:06:52;;;;;;;0.00;0.00;;;;;;;2.45;98.53;98624.81;5113729;28;20403;-70
2022/01/11 05:09:17;;;;;;;2.65;2.25;;;;;;;2.39;98.22;98627.34;5112935;28;20027;-71
2022/01/11 05:11:43;;;;;;;1.25;0.80;;;;;;;2.31;97.77;98624.25;5113028;28;20032;-69
2022/01/11 05:14:08;;;;;;;2.10;1.88;;;;;;;2.50;98.13;98670.59;5102803;28;20116;-70
2022/01/11 05:16:33;;;;;;;0.08;0.08;;;;;;;2.35;97.34;98636.75;5094133;28;20051;-68
2022/01/11 05:18:59;;;;;;;0.20;0.20;;;;;;;2.36;97.86;98630.44;5110149;28;20027;-70
2022/01/11 05:21:24;;;;;;;0.10;0.10;;;;;;;2.38;97.79;98641.56;5116348;27;20087;-71
2022/01/11 05:23:50;;;;;;;0.45;0.45;;;;;;;2.45;97.29;98662.53;5113592;27;20034;-72
2022/01/11 05:26:15;;;;;;;0.00;0.00;;;;;;;2.40;96.81;98686.19;5105589;28;20403;-71
2022/01/11 05:28:40;;;;;;;0.13;0.13;;;;;;;2.40;96.91;98667.72;5095235;28;20158;-71
2022/01/11 05:31:06;;;;;;;0.00;0.00;;;;;;;2.30;96.35;98673.59;5095316;28;20024;-69
2022/01/11 05:33:32;;;;;;;2.10;1.83;;;;;;;2.27;95.98;98655.59;5110466;28;20402;-70
2022/01/11 05:35:57;;;;;;;0.00;0.00;;;;;;;2.23;95.38;98672.91;5113796;28;20028;-70
2022/01/11 05:38:23;;;;;;;0.35;0.35;;;;;;;2.21;95.79;98662.59;5112241;28;20058;-70
2022/01/11 05:40:50;;;;;;;0.25;0.25;;;;;;;2.22;95.17;98680.03;5112232;28;20048;-71
2022/01/11 05:43:15;;;;;;;1.48;1.38;;;;;;;2.04;95.21;98699.41;5113650;28;20023;-70
2022/01/11 05:45:42;;;;;;;0.30;0.30;;;;;;;2.15;95.94;98699.63;5113510;28;20031;-70
2022/01/11 05:48:07;;;;;;;0.22;0.22;;;;;;;2.08;95.23;98692.63;5113592;28;20539;-70
2022/01/11 05:50:33;;;;;;;0.00;0.00;;;;;;;2.17;95.35;98719.50;5112106;28;20028;-71
2022/01/11 05:52:58;;;;;;;0.70;0.68;;;;;;;2.17;95.20;98724.75;5111811;28;20039;-71
2022/01/11 05:55:24;;;;;;;0.00;0.00;;;;;;;2.14;95.33;98706.75;5113548;28;20063;-71
2022/01/11 05:57:49;;;;;;;0.25;0.25;;;;;;;2.15;95.13;98718.91;5113444;28;20035;-71
2022/01/11 06:00:17;;;;;;;0.13;0.13;;;;;;;2.12;95.55;98711.44;5113433;28;20027;-71
2022/01/11 06:02:46;;;;;;;0.00;0.00;;;;;;;2.12;95.88;98708.00;5113533;28;20032;-71
2022/01/11 06:05:13;;;;;;;0.80;0.80;;;;;;;2.10;95.27;98713.50;5113582;28;20031;-71
2022/01/11 06:07:39;;;;;;;0.00;0.00;;;;;;;2.14;95.42;98713.88;5113328;28;20451;-71
2022/01/11 06:10:06;;;;;;;0.60;0.60;;;;;;;2.06;95.24;98699.16;5112223;28;20497;-69
2022/01/11 06:12:31;;;;;;;0.05;0.05;;;;;;;2.17;94.97;98737.97;5112552;28;20027;-71
2022/01/11 06:14:56;;;;;;;0.10;0.10;;;;;;;2.18;94.79;98725.56;5113005;28;20024;-69
2022/01/11 06:17:22;;;;;;;1.00;1.00;;;;;;;2.17;94.73;98735.31;5112596;28;20406;-69
2022/01/11 06:19:47;;;;;;;0.25;0.25;;;;;;;2.23;94.67;98757.31;5112949;28;20023;-70
2022/01/11 06:22:12;;;;;;;1.80;1.65;;;;;;;2.04;94.28;98720.50;5112023;28;20658;-70
2022/01/11 06:24:38;;;;;;;0.00;0.00;;;;;;;2.24;93.84;98765.00;5112100;28;20038;-70
2022/01/11 06:27:03;;;;;;;0.15;0.15;;;;;;;2.20;94.16;98750.69;5112631;28;20475;-70
2022/01/11 06:29:29;;;;;;;0.40;0.40;;;;;;;2.12;93.42;98739.66;5110409;28;20031;-70
2022/01/11 06:31:54;;;;;;;0.00;0.00;;;;;;;2.13;92.77;98752.63;5112139;28;20062;-69
2022/01/11 06:34:20;;;;;;;0.52;0.52;;;;;;;2.08;93.33;98753.28;5111875;28;20039;-70
2022/01/11 06:36:45;;;;;;;0.38;0.38;;;;;;;2.16;93.12;98772.47;5111895;27;20016;-71
2022/01/11 06:39:10;;;;;;;0.00;0.00;;;;;;;2.06;93.09;98751.91;5110739;28;20368;-70
2022/01/11 06:41:36;;;;;;;4.63;1.10;;;;;;;2.05;93.13;98753.75;5111737;28;20027;-70
2022/01/11 06:44:02;;;;;;;0.15;0.15;;;;;;;2.05;93.30;98774.03;5111937;28;20031;-70
2022/01/11 06:46:28;;;;;;;0.00;0.00;;;;;;;2.06;93.17;98788.84;5111481;28;20016;-70
2022/01/11 06:48:54;;;;;;;0.10;0.10;;;;;;;2.04;93.12;98786.44;5111984;28;20028;-70
2022/01/11 06:51:20;;;;;;;0.00;0.00;;;;;;;2.10;92.31;98807.66;5112357;28;20050;-70
2022/01/11 06:53:46;;;;;;;0.00;0.00;;;;;;;2.00;92.50;98819.59;5112226;28;20081;-71
2022/01/11 06:56:12;;;;;;;0.20;0.20;;;;;;;2.07;92.88;98817.63;5111971;28;20024;-69
2022/01/11 06:58:38;;;;;;;0.00;0.00;;;;;;;2.09;92.37;98804.22;5112068;28;20717;-70
2022/01/11 07:01:04;;;;;;;0.00;0.00;;;;;;;2.07;92.76;98798.38;5112332;28;20494;-69
2022/01/11 07:03:30;;;;;;;0.52;0.52;;;;;;;2.10;93.36;98794.47;5111999;28;20470;-69
2022/01/11 07:05:55;;;;;;;0.00;0.00;;;;;;;2.01;92.87;98791.38;5112171;28;20104;-70
2022/01/11 07:08:21;;;;;;;0.00;0.00;;;;;;;2.02;93.51;98806.16;5112268;28;20036;-70
2022/01/11 07:10:46;;;;;;;0.00;0.00;;;;;;;1.99;93.29;98803.97;5111625;28;20020;-69
2022/01/11 07:13:11;;;;;;;0.08;0.08;;;;;;;2.06;93.41;98817.84;5110667;28;20031;-70
2022/01/11 07:15:37;;;;;;;0.75;0.75;;;;;;;1.73;93.12;98793.59;5111515;28;20088;-70
2022/01/11 07:18:08;;;;;;;0.52;0.43;;;;;;;1.97;92.87;98801.56;5111958;28;20027;-70
2022/01/11 07:20:34;;;;;;;0.00;0.00;;;;;;;1.85;93.50;98835.00;5111748;28;20390;-70
2022/01/11 07:22:59;;;;;;;0.20;0.20;;;;;;;1.95;93.55;98848.44;5111226;28;20106;-70
2022/01/11 07:25:26;;;;;;;0.10;0.10;;;;;;;1.87;93.25;98833.75;5111412;28;20051;-70
2022/01/11 07:27:51;;;;;;;0.00;0.00;;;;;;;1.82;94.31;98828.34;5110484;28;20031;-70
2022/01/11 07:30:17;;;;;;;0.00;0.00;;;;;;;1.86;94.82;98831.34;5112150;28;20519;-70
2022/01/11 07:32:42;;;;;;;0.30;0.30;;;;;;;1.72;94.95;98823.63;5111464;28;20558;-71
2022/01/11 07:35:08;;;;;;;3.00;0.80;;;;;;;1.77;94.01;98838.78;5111435;28;20031;-71
2022/01/11 07:37:33;;;;;;;0.40;0.40;;;;;;;1.68;94.38;98837.47;5111557;28;20115;-70
2022/01/11 07:39:59;;;;;;;0.10;0.10;;;;;;;1.72;94.76;98852.63;5111432;28;20023;-70
2022/01/11 07:42:24;;;;;;;0.57;0.57;;;;;;;1.66;94.00;98832.41;5110012;28;20475;-70
2022/01/11 07:44:51;;;;;;;0.30;0.30;;;;;;;1.66;93.97;98869.31;5111580;28;20028;-70
2022/01/11 07:47:20;;;;;;;0.20;0.20;;;;;;;1.69;93.37;98863.59;5111502;28;20027;-70
2022/01/11 07:49:49;;;;;;;0.38;0.38;;;;;;;1.44;93.44;98826.78;5111330;28;20043;-70
2022/01/11 07:52:16;;;;;;;0.00;0.00;;;;;;;1.70;93.56;98872.31;5111162;28;20084;-70
2022/01/11 07:54:41;;;;;;;0.10;0.10;;;;;;;1.73;93.87;98877.13;5111282;28;20040;-70
2022/01/11 07:57:07;;;;;;;0.00;0.00;;;;;;;1.70;93.88;98881.03;5111078;28;20418;-70
2022/01/11 07:59:33;;;;;;;0.38;0.38;;;;;;;1.60;93.55;98859.66;5111158;28;20469;-70
2022/01/11 08:01:59;;;;;;;0.10;0.10;;;;;;;1.68;93.71;98877.00;5111078;28;20039;-70
2022/01/11 08:04:30;;;;;;;0.00;0.00;;;;;;;1.64;94.22;98855.56;5111391;28;20110;-70
2022/01/11 08:06:56;;;;;;;0.00;0.00;;;;;;;1.62;93.15;98886.59;5111687;28;20028;-71
2022/01/11 08:09:21;;;;;;;0.15;0.15;;;;;;;1.69;93.21;98884.69;5111359;28;20088;-72
2022/01/11 08:11:49;;;;;;;0.00;0.00;;;;;;;1.40;93.82;98838.81;5109751;28;20451;-70
2022/01/11 08:14:15;;;;;;;5.03;2.05;;;;;;;1.72;93.80;98875.53;5111378;28;20031;-71
2022/01/11 08:16:40;;;;;;;0.00;0.00;;;;;;;1.78;93.60;98873.84;5111056;28;20491;-71
2022/01/11 08:19:06;;;;;;;0.00;0.00;;;;;;;1.72;93.25;98865.78;5111557;28;20032;-71
2022/01/11 08:21:31;;;;;;;0.00;0.00;;;;;;;1.81;93.71;98891.84;5111007;28;20027;-71
2022/01/11 08:23:56;;;;;;;0.00;0.00;;;;;;;1.71;93.05;98866.00;5111254;28;20023;-71
2022/01/11 08:26:22;;;;;;;0.88;0.88;;;;;;;1.66;92.93;98871.13;5111195;28;20019;-71
2022/01/11 08:28:47;;;;;;;0.00;0.00;;;;;;;1.67;93.79;98878.84;5110950;28;20529;-71
2022/01/11 08:31:13;;;;;;;0.50;0.50;;;;;;;1.65;94.10;98878.25;5111390;28;20557;-71
2022/01/11 08:33:38;;;;;;;0.20;0.20;;;;;;;1.78;94.66;98897.56;5109523;28;20023;-71
2022/01/11 08:36:05;;;;;;;0.00;0.00;;;;;;;1.76;94.91;98918.88;5114671;28;20024;-71
2022/01/11 08:38:30;;;;;;;0.55;0.55;;;;;;;1.69;94.93;98908.41;5114902;28;20096;-71
2022/01/11 08:40:56;;;;;;;0.15;0.15;;;;;;;1.70;95.12;98933.75;5115022;28;20475;-71
2022/01/11 08:43:21;;;;;;;0.10;0.10;;;;;;;1.68;95.48;98922.59;5115212;28;20104;-71
2022/01/11 08:45:47;;;;;;;0.55;0.55;;;;;;;1.65;95.20;98915.16;5114779;28;20024;-71
2022/01/11 08:48:12;;;;;;;0.00;0.00;;;;;;;1.63;95.14;98940.13;5113489;28;20080;-70
2022/01/11 08:50:38;;;;;;;3.38;2.30;;;;;;;1.52;94.94;98920.56;5114636;28;20087;-70
2022/01/11 08:53:03;;;;;;;0.20;0.20;;;;;;;1.52;95.25;98910.03;5114773;28;20052;-70
2022/01/11 08:55:29;;;;;;;0.10;0.10;;;;;;;1.58;95.56;98917.06;5114692;28;20093;-70
2022/01/11 08:57:55;;;;;;;0.00;0.00;;;;;;;1.52;95.10;98918.75;5114924;28;20027;-70
2022/01/11 09:00:20;;;;;;;1.17;0.93;;;;;;;1.45;95.45;98936.44;5113328;28;20032;-70
2022/01/11 09:02:47;;;;;;;0.28;0.28;;;;;;;1.51;96.00;98929.50;5114086;28;20443;-70
2022/01/11 09:05:14;;;;;;;1.65;1.45;;;;;;;1.38;96.40;98923.34;5114576;28;20137;-70
2022/01/11 09:07:40;;;;;;;0.20;0.20;;;;;;;1.35;96.89;98918.50;5114269;28;20039;-70
2022/01/11 09:10:07;;;;;;;1.17;1.13;;;;;;;1.35;97.46;98934.31;5114473;28;20028;-70
2022/01/11 09:12:33;;;;;;;5.72;1.75;;;;;;;1.26;97.70;98941.69;5114002;28;20027;-70
2022/01/11 09:14:59;;;;;;;0.00;0.00;;;;;;;1.16;98.28;98930.88;5113019;28;20043;-70
2022/01/11 09:17:24;;;;;;;1.25;1.20;;;;;;;1.08;98.89;98929.31;5114356;28;20080;-69
2022/01/11 09:19:49;;;;;;;0.00;0.00;;;;;;;0.97;99.73;98923.94;5114038;28;20031;-70
2022/01/11 09:22:15;;;;;;;0.00;0.00;;;;;;;0.96;99.94;98931.03;5113976;28;20055;-70
2022/01/11 09:24:41;;;;;;;0.13;0.13;;;;;;;0.95;100.00;98924.97;5113898;28;20024;-70
2022/01/11 09:27:07;;;;;;;0.00;0.00;;;;;;;0.91;100.00;98920.34;5114160;28;20066;-69
2022/01/11 09:29:36;;;;;;;0.00;0.00;;;;;;;0.73;100.00;98900.84;5113982;28;20455;-70
2022/01/11 09:32:04;;;;;;;0.32;0.32;;;;;;;0.78;100.00;98915.97;5113963;28;20024;-69
2022/01/11 09:34:30;;;;;;;0.00;0.00;;;;;;;0.80;100.00;98916.59;5112738;28;20059;-69
2022/01/11 09:36:57;;;;;;;1.17;1.17;;;;;;;0.71;100.00;98923.94;5113435;28;20066;-70
2022/01/11 09:39:23;;;;;;;0.00;0.00;;;;;;;0.77;100.00;98925.72;5113256;28;20024;-70
2022/01/11 09:41:49;;;;;;;0.00;0.00;;;;;;;0.78;100.00;98937.03;5113674;28;20127;-69
2022/01/11 09:44:16;;;;;;;0.20;0.20;;;;;;;0.74;100.00;98939.28;5113836;28;20498;-69
2022/01/11 09:46:41;;;;;;;0.00;0.00;;;;;;;0.71;100.00;98937.09;5111889;28;20193;-70
2022/01/11 09:49:07;;;;;;;0.00;0.00;;;;;;;0.66;100.00;98925.59;5113845;28;20499;-69
2022/01/11 09:51:34;;;;;;;0.10;0.10;;;;;;;0.48;100.00;98900.84;5111950;28;20024;-71
2022/01/11 09:54:00;;;;;;;0.57;0.57;;;;;;;0.47;100.00;98910.53;5113595;28;20518;-70
2022/01/11 09:56:25;;;;;;;0.00;0.00;;;;;;;0.56;100.00;98941.88;5113406;28;20028;-69
2022/01/11 09:58:51;;;;;;;0.70;0.70;;;;;;;0.56;100.00;98944.50;5112871;28;20036;-69
2022/01/11 10:01:17;;;;;;;0.00;0.00;;;;;;;0.52;100.00;98948.56;5112193;28;20023;-69
2022/01/11 10:04:04;;;;;;;0.20;0.20;;;;;;;0.48;100.00;98950.81;5111896;28;20107;-70
2022/01/11 10:06:31;;;;;;;0.00;0.00;;;;;;;0.28;100.00;98908.84;5113377;28;20024;-70
2022/01/11 10:09:10;;;;;;;0.55;0.55;;;;;;;0.45;100.00;98938.09;5112767;28;20376;-70
2022/01/11 10:11:51;;;;;;;0.80;0.80;;;;;;;0.33;100.00;98932.72;5112817;28;20028;-70
2022/01/11 10:14:34;;;;;;;0.00;0.00;;;;;;;0.32;100.00;98928.47;5113275;28;20143;-71
2022/01/11 10:17:10;;;;;;;0.00;0.00;;;;;;;0.25;100.00;98930.31;5111868;28;20035;-71
2022/01/11 10:19:41;;;;;;;2.40;2.30;;;;;;;0.20;100.00;98946.72;5112894;28;20051;-71
2022/01/11 10:22:10;;;;;;;0.20;0.20;;;;;;;0.16;100.00;98932.41;5111796;28;20479;-70
2022/01/11 10:24:42;;;;;;;;;;;;;;;0.30;100.00;98947.06;5113236;28;20027;-70
2022/01/11 10:27:29;;;;;;;0.00;0.00;;;;;;;0.28;100.00;98949.13;5112130;28;19908;-70
2022/01/11 10:30:00;;;;;;;1.17;1.10;;;;;;;0.29;100.00;98961.25;5112014;28;20031;-70
2022/01/11 10:32:30;;;;;;;0.00;0.00;;;;;;;0.27;100.00;98955.41;5112346;28;20110;-71
2022/01/11 10:35:04;;;;;;;0.00;0.00;;;;;;;0.17;100.00;98941.09;5092561;28;20478;-71
2022/01/11 10:37:36;;;;;;;0.55;0.55;;;;;;;0.27;100.00;98951.94;5092074;28;20032;-70
2022/01/11 10:40:06;;;;;;;0.10;0.10;;;;;;;0.14;100.00;98943.09;5092364;28;20032;-70
2022/01/11 10:42:38;;;;;;;0.57;0.57;;;;;;;0.12;100.00;98965.38;5090978;28;20035;-70
2022/01/11 10:45:11;;;;;;;0.75;0.75;;;;;;;0.07;100.00;98941.53;5092163;28;20115;-70
2022/01/11 10:47:40;;;;;;;0.00;0.00;;;;;;;0.12;100.00;98953.06;5091778;28;20160;-70
2022/01/11 10:50:12;;;;;;;0.30;0.30;;;;;;;0.08;100.00;98938.69;5092169;28;20039;-70
2022/01/11 10:52:38;;;;;;;2.20;1.50;;;;;;;0.10;100.00;98941.94;5091781;28;20047;-71
2022/01/11 10:55:06;;;;;;;0.55;0.55;;;;;;;0.13;100.00;98959.91;5092092;28;20093;-70
2022/01/11 10:57:37;;;;;;;0.00;0.00;;;;;;;0.11;100.00;98945.34;5098776;28;20080;-70
2022/01/11 11:00:05;;;;;;;1.20;1.20;;;;;;;0.11;100.00;98958.50;5112365;28;20083;-70
2022/01/11 11:02:31;;;;;;;1.58;0.80;;;;;;;0.12;100.00;98952.22;5098105;28;20536;-70
2022/01/11 11:04:58;;;;;;;0.80;0.73;;;;;;;-0.01;100.00;98942.59;5090363;28;20044;-70
2022/01/11 11:07:26;;;;;;;0.00;0.00;;;;;;;-0.01;100.00;98942.59;5091760;28;20028;-69
2022/01/11 11:09:52;;;;;;;0.20;0.20;;;;;;;0.09;100.00;98945.56;5091848;28;20025;-70
2022/01/11 11:12:20;;;;;;;0.00;0.00;;;;;;;0.07;100.00;98936.28;5091992;28;20024;-70
2022/01/11 11:14:51;;;;;;;0.00;0.00;;;;;;;0.05;100.00;98935.66;5091470;28;20065;-69
2022/01/11 11:17:29;;;;;;;0.00;0.00;;;;;;;0.02;100.00;98931.63;5091732;28;20110;-69
2022/01/11 11:20:10;;;;;;;0.20;0.20;;;;;;;0.07;100.00;98957.31;5090201;28;20032;-70
2022/01/11 11:22:36;;;;;;;1.05;1.05;;;;;;;0.05;100.00;98959.34;5091576;28;20031;-70
2022/01/11 11:25:04;;;;;;;1.05;0.98;;;;;;;-0.04;100.00;98949.06;5091300;28;20036;-70
2022/01/11 11:27:31;;;;;;;2.85;1.50;;;;;;;0.00;100.00;98946.84;5091170;28;20395;-70
2022/01/11 11:29:57;;;;;;;0.25;0.25;;;;;;;-0.17;100.00;98909.72;5091284;28;20036;-71
2022/01/11 11:32:23;;;;;;;1.10;1.10;;;;;;;0.10;100.00;98955.06;5090184;28;20024;-71
2022/01/11 11:34:49;;;;;;;1.13;1.13;;;;;;;-0.01;100.00;98940.75;5090933;28;20050;-71
2022/01/11 11:37:39;;;;;;;0.00;0.00;;;;;;;0.07;100.00;98979.16;5091426;28;20032;-70
2022/01/11 11:40:09;;;;;;;0.88;0.88;;;;;;;0.05;100.00;98973.31;5081349;28;20032;-70
2022/01/11 11:42:38;;;;;;;0.13;0.13;;;;;;;-0.01;100.00;98959.16;5091221;28;20031;-69